Time;durP1;ratioP1;P1;durP2;ratioP2;P2;SDS_P1;SDS_P2;PMS_P1;PMS_P2;Temp;Humidity;BMP_temperature;BMP_pressure;BME280_temperature;BME280_humidity;BME280_pressure;Samples;Min_cycle;Max_cycle;Signal;HPM_P1;HPM_P2
2022/08/29 00:02:09;;;;;;;12.60;4.22;;;;;;;12.31;100.00;102141.97;4964718;28;20046;-73
2022/08/29 00:04:35;;;;;;;10.80;3.40;;;;;;;12.28;100.00;102144.78;4964300;28;20058;-72
2022/08/29 00:07:00;;;;;;;8.32;3.70;;;;;;;12.18;100.00;102142.56;4965077;28;20122;-73
2022/08/29 00:09:26;;;;;;;8.88;3.45;;;;;;;12.04;100.00;102144.19;4963132;28;20066;-74
2022/08/29 00:11:51;;;;;;;7.35;3.00;;;;;;;12.08;100.00;102138.63;4959210;28;20035;-73
2022/08/29 00:14:18;;;;;;;5.20;2.92;;;;;;;12.04;100.00;102141.50;4959187;28;20483;-73
2022/08/29 00:16:43;;;;;;;3.65;3.03;;;;;;;11.98;100.00;102137.31;4964852;28;20875;-73
2022/08/29 00:19:09;;;;;;;5.45;3.17;;;;;;;11.94;100.00;102133.06;4964799;28;20096;-73
2022/08/29 00:21:34;;;;;;;5.15;3.22;;;;;;;11.80;100.00;102133.72;4964498;28;20057;-73
2022/08/29 00:24:00;;;;;;;4.85;3.03;;;;;;;11.74;100.00;102133.13;4955603;28;20054;-72
2022/08/29 00:26:25;;;;;;;8.70;2.75;;;;;;;11.65;100.00;102143.31;4960780;28;20043;-73
2022/08/29 00:28:51;;;;;;;7.35;3.78;;;;;;;11.74;100.00;102136.66;4957493;28;20511;-73
2022/08/29 00:31:16;;;;;;;7.55;3.30;;;;;;;11.79;100.00;102136.44;4957536;28;20123;-72
2022/08/29 00:33:42;;;;;;;7.47;3.20;;;;;;;11.87;100.00;102135.19;4966147;28;20038;-72
2022/08/29 00:36:09;;;;;;;5.53;3.60;;;;;;;11.83;100.00;102138.06;4966196;28;20501;-73
2022/08/29 00:38:35;;;;;;;8.48;3.92;;;;;;;11.61;100.00;102139.06;4966766;28;20077;-74
2022/08/29 00:41:00;;;;;;;7.90;3.60;;;;;;;11.74;100.00;102141.13;4968173;28;20399;-73
2022/08/29 00:43:32;;;;;;;7.82;3.28;;;;;;;11.70;100.00;102134.19;4966700;28;20039;-72
2022/08/29 00:46:10;;;;;;;8.23;4.03;;;;;;;11.85;100.00;102138.88;4968146;28;20058;-72
2022/08/29 00:48:38;;;;;;;5.65;3.55;;;;;;;11.87;100.00;102147.69;4966731;28;20050;-72
2022/08/29 00:51:19;;;;;;;4.60;3.38;;;;;;;11.76;100.00;102142.81;4964201;28;20050;-73
2022/08/29 00:53:46;;;;;;;7.03;3.95;;;;;;;11.48;100.00;102131.69;4963193;28;20078;-73
2022/08/29 00:56:15;;;;;;;11.02;4.40;;;;;;;11.32;100.00;102136.88;4963003;28;20050;-72
2022/08/29 00:58:46;;;;;;;11.25;4.72;;;;;;;11.17;100.00;102133.09;4962201;28;20073;-72
2022/08/29 01:01:12;;;;;;;7.78;4.25;;;;;;;11.22;100.00;102136.41;4954796;28;20050;-73
2022/08/29 01:03:38;;;;;;;7.80;4.05;;;;;;;11.06;100.00;102138.91;4956901;28;20047;-73
2022/08/29 01:06:05;;;;;;;4.72;3.22;;;;;;;11.19;100.00;102133.00;4963004;28;20051;-73
2022/08/29 01:08:31;;;;;;;7.30;3.97;;;;;;;11.43;100.00;102139.91;4963320;28;20117;-74
2022/08/29 01:13:43;;;;;;;5.25;3.90;;;;;;;11.27;100.00;102150.44;4963287;28;20074;-74
2022/08/29 01:16:11;;;;;;;5.82;3.60;;;;;;;11.43;100.00;102145.25;4963198;28;20030;-73
2022/08/29 01:18:39;;;;;;;6.78;3.60;;;;;;;11.52;100.00;102144.81;4963443;28;20462;-73
2022/08/29 01:21:27;;;;;;;8.95;4.32;;;;;;;11.44;100.00;102151.44;4963203;28;20113;-73
2022/08/29 01:24:15;;;;;;;6.70;3.80;;;;;;;11.46;100.00;102144.25;4961609;28;20118;-73
2022/08/29 01:26:45;;;;;;;5.97;3.95;;;;;;;11.38;100.00;102148.13;4962996;28;20039;-73
2022/08/29 01:29:10;;;;;;;6.32;3.78;;;;;;;11.22;100.00;102148.91;4960881;28;20049;-74
2022/08/29 01:31:46;;;;;;;5.70;4.20;;;;;;;11.07;100.00;102153.13;4962360;28;20806;-72
2022/08/29 01:34:14;;;;;;;6.93;4.32;;;;;;;11.12;100.00;102140.44;4962588;28;20046;-73
2022/08/29 01:36:52;;;;;;;7.78;3.58;;;;;;;10.90;100.00;102143.19;4962042;28;20187;-72
2022/08/29 01:39:20;;;;;;;5.38;3.60;;;;;;;10.71;100.00;102151.13;4962028;28;20054;-73
2022/08/29 01:41:46;;;;;;;6.57;3.55;;;;;;;10.82;100.00;102142.66;4962274;28;20043;-72
2022/08/29 01:44:16;;;;;;;7.05;4.00;;;;;;;10.83;100.00;102142.59;4960531;28;20053;-73
2022/08/29 01:46:42;;;;;;;8.15;3.67;;;;;;;10.73;100.00;102135.03;4960734;28;20038;-73
2022/08/29 01:49:09;;;;;;;6.70;3.78;;;;;;;10.61;100.00;102147.13;4961894;28;20046;-72
2022/08/29 01:51:36;;;;;;;5.65;3.13;;;;;;;10.47;100.00;102154.84;4961700;28;20154;-72
2022/08/29 01:54:04;;;;;;;7.72;3.85;;;;;;;10.41;100.00;102150.63;4960275;28;20082;-73
2022/08/29 01:56:33;;;;;;;5.68;2.83;;;;;;;10.63;100.00;102153.25;4960766;28;20066;-73
2022/08/29 01:59:00;;;;;;;5.95;3.47;;;;;;;10.78;100.00;102152.59;4961064;28;20038;-72
2022/08/29 02:01:30;;;;;;;6.70;2.97;;;;;;;10.93;100.00;102150.19;4961372;28;20046;-72
2022/08/29 02:03:57;;;;;;;14.60;4.03;;;;;;;10.91;100.00;102160.94;4961767;28;20050;-73
2022/08/29 02:06:24;;;;;;;8.40;3.85;;;;;;;10.75;100.00;102152.75;4961437;28;20156;-72
2022/08/29 02:08:49;;;;;;;4.97;3.67;;;;;;;10.72;100.00;102149.31;4961561;28;20038;-73
2022/08/29 02:11:17;;;;;;;5.90;3.55;;;;;;;10.53;100.00;102141.22;4961366;28;20243;-71
2022/08/29 02:13:49;;;;;;;6.72;3.85;;;;;;;10.58;100.00;102153.44;4961795;28;20051;-73
2022/08/29 02:16:16;;;;;;;;;;;;;;;10.62;100.00;102151.50;4962592;28;20042;-72
2022/08/29 02:18:41;;;;;;;6.03;3.70;;;;;;;10.70;100.00;102151.22;4961199;28;19918;-72
2022/08/29 02:21:08;;;;;;;6.18;3.55;;;;;;;10.78;100.00;102157.06;4962446;28;20038;-73
2022/08/29 02:23:35;;;;;;;7.20;3.72;;;;;;;10.68;100.00;102155.72;4962488;28;20046;-72
2022/08/29 02:26:01;;;;;;;8.85;3.78;;;;;;;10.53;100.00;102158.09;4962753;28;20122;-70
2022/08/29 02:28:26;;;;;;;6.05;4.22;;;;;;;10.55;100.00;102161.59;4962255;28;20749;-71
2022/08/29 02:30:52;;;;;;;11.80;4.90;;;;;;;10.73;100.00;102156.38;4962831;28;20074;-71
2022/08/29 02:33:19;;;;;;;13.48;4.50;;;;;;;10.68;100.00;102153.06;4962993;28;20030;-71
2022/08/29 02:35:44;;;;;;;7.75;4.40;;;;;;;10.41;100.00;102152.44;4963182;28;20057;-73
2022/08/29 02:38:12;;;;;;;8.63;4.40;;;;;;;10.37;100.00;102155.22;4963078;28;20066;-72
2022/08/29 02:40:38;;;;;;;9.90;3.40;;;;;;;10.49;100.00;102156.53;4963138;28;20043;-74
2022/08/29 02:43:04;;;;;;;12.73;4.97;;;;;;;10.53;100.00;102155.44;4960969;28;20034;-72
2022/08/29 02:45:30;;;;;;;12.95;5.13;;;;;;;10.56;100.00;102157.13;4960647;28;20713;-72
2022/08/29 02:47:56;;;;;;;9.23;4.68;;;;;;;10.50;100.00;102158.25;4962258;28;20054;-72
2022/08/29 02:50:24;;;;;;;5.88;3.90;;;;;;;10.51;100.00;102151.97;4962622;28;20125;-71
2022/08/29 02:52:49;;;;;;;9.63;4.55;;;;;;;10.51;100.00;102153.78;4962340;28;20054;-73
2022/08/29 02:55:16;;;;;;;6.40;3.67;;;;;;;10.40;100.00;102153.38;4970658;28;20047;-72
2022/08/29 02:57:43;;;;;;;10.30;3.70;;;;;;;10.41;100.00;102153.28;4962340;28;20035;-71
2022/08/29 03:00:14;;;;;;;6.97;4.30;;;;;;;10.37;100.00;102162.34;4960399;28;20547;-71
2022/08/29 03:02:39;;;;;;;6.28;3.88;;;;;;;10.32;100.00;102157.19;4962038;28;20043;-72
2022/08/29 03:05:05;;;;;;;7.93;4.05;;;;;;;10.19;100.00;102155.06;4961417;28;20054;-71
2022/08/29 03:07:31;;;;;;;9.10;4.63;;;;;;;10.26;100.00;102160.13;4960385;28;20051;-71
2022/08/29 03:09:56;;;;;;;9.32;3.75;;;;;;;10.34;100.00;102152.69;4961788;28;20129;-73
2022/08/29 03:12:23;;;;;;;6.53;3.95;;;;;;;10.30;100.00;102151.06;4961975;28;20042;-71
2022/08/29 03:14:48;;;;;;;6.93;3.60;;;;;;;10.28;100.00;102154.72;4962306;28;20051;-71
2022/08/29 03:17:14;;;;;;;6.93;3.72;;;;;;;10.25;100.00;102153.06;4961840;28;20113;-73
2022/08/29 03:19:39;;;;;;;7.70;3.83;;;;;;;10.21;100.00;102155.88;4962285;28;20035;-73
2022/08/29 03:22:05;;;;;;;7.95;4.72;;;;;;;10.26;100.00;102151.25;4962653;28;20730;-75
2022/08/29 03:24:34;;;;;;;6.50;3.97;;;;;;;10.22;100.00;102146.94;4965464;28;20094;-73
2022/08/29 03:26:59;;;;;;;6.25;4.57;;;;;;;10.00;100.00;102146.97;4967005;28;20114;-73
2022/08/29 03:29:25;;;;;;;8.65;4.55;;;;;;;9.98;100.00;102149.66;4965859;28;20290;-71
2022/08/29 03:31:51;;;;;;;8.70;5.00;;;;;;;9.88;100.00;102155.41;4966232;28;20049;-72
2022/08/29 03:34:16;;;;;;;7.07;4.35;;;;;;;9.80;100.00;102151.28;4964913;28;20557;-72
2022/08/29 03:36:42;;;;;;;8.20;4.28;;;;;;;9.80;100.00;102142.41;4965231;28;20046;-72
2022/08/29 03:39:08;;;;;;;7.93;4.50;;;;;;;9.89;100.00;102149.16;4966638;28;20070;-73
2022/08/29 03:41:33;;;;;;;8.63;4.63;;;;;;;9.95;100.00;102138.28;4966610;28;20066;-73
2022/08/29 03:43:59;;;;;;;11.60;4.82;;;;;;;9.77;100.00;102137.19;4967584;28;20058;-73
2022/08/29 03:46:25;;;;;;;6.35;4.22;;;;;;;9.78;100.00;102131.78;4964943;28;20045;-71
2022/08/29 03:48:51;;;;;;;7.13;4.60;;;;;;;9.76;100.00;102131.00;4964457;28;20058;-73
2022/08/29 03:51:18;;;;;;;7.38;4.45;;;;;;;9.85;100.00;102129.78;4963982;28;20125;-72
2022/08/29 03:53:44;;;;;;;9.88;4.30;;;;;;;9.70;100.00;102135.72;4963202;28;20050;-72
2022/08/29 03:56:10;;;;;;;6.68;4.45;;;;;;;9.75;100.00;102145.25;4963843;28;20046;-73
2022/08/29 03:58:36;;;;;;;9.93;4.93;;;;;;;9.85;100.00;102138.63;4962093;28;20047;-72
2022/08/29 04:01:02;;;;;;;7.65;4.75;;;;;;;10.04;100.00;102133.44;4964543;28;20597;-71
2022/08/29 04:03:28;;;;;;;7.88;4.10;;;;;;;9.90;100.00;102132.25;4964841;28;20130;-72
2022/08/29 04:05:53;;;;;;;9.40;4.57;;;;;;;10.08;100.00;102132.38;4964340;28;20388;-71
2022/08/29 04:08:19;;;;;;;8.23;3.95;;;;;;;10.26;100.00;102125.47;4963237;28;20039;-72
2022/08/29 04:10:45;;;;;;;6.38;4.72;;;;;;;10.16;100.00;102126.75;4965027;28;20039;-71
2022/08/29 04:13:10;;;;;;;8.88;5.10;;;;;;;10.33;100.00;102126.06;4973142;28;20121;-72
2022/08/29 04:15:39;;;;;;;8.02;4.78;;;;;;;10.44;100.00;102133.63;4967516;28;20061;-72
2022/08/29 04:18:06;;;;;;;12.10;4.75;;;;;;;10.13;100.00;102134.84;4947760;28;20150;-71
2022/08/29 04:20:36;;;;;;;12.02;5.20;;;;;;;10.18;100.00;102132.88;4963697;28;20043;-71
2022/08/29 04:23:02;;;;;;;9.10;5.35;;;;;;;10.40;100.00;102134.69;4964410;28;20047;-72
2022/08/29 04:25:34;;;;;;;9.90;5.38;;;;;;;10.51;100.00;102129.78;4964079;28;20142;-71
2022/08/29 04:28:00;;;;;;;8.27;5.47;;;;;;;10.74;100.00;102129.63;4951080;28;20492;-71
2022/08/29 04:30:26;;;;;;;10.63;5.18;;;;;;;10.76;100.00;102137.59;4964034;28;20130;-72
2022/08/29 04:32:52;;;;;;;8.77;4.93;;;;;;;10.68;100.00;102139.72;4961907;28;20076;-71
2022/08/29 04:35:18;;;;;;;13.40;5.53;;;;;;;10.65;100.00;102143.41;4962039;28;20208;-72
2022/08/29 04:37:43;;;;;;;8.75;5.32;;;;;;;10.84;100.00;102148.78;4961571;28;20156;-72
2022/08/29 04:40:14;;;;;;;9.38;5.75;;;;;;;10.81;100.00;102140.94;4961298;28;20061;-72
2022/08/29 04:42:40;;;;;;;11.48;5.22;;;;;;;10.98;100.00;102130.38;4962189;28;20098;-71
2022/08/29 04:45:08;;;;;;;7.68;5.28;;;;;;;10.94;100.00;102139.44;4963305;28;20043;-72
2022/08/29 04:47:34;;;;;;;8.88;5.05;;;;;;;11.13;100.00;102136.81;4963902;28;20058;-70
2022/08/29 04:50:00;;;;;;;10.07;4.80;;;;;;;11.27;100.00;102142.41;4963532;28;20054;-70
2022/08/29 04:52:26;;;;;;;12.70;5.88;;;;;;;11.29;100.00;102139.66;4964190;28;20051;-72
2022/08/29 04:54:51;;;;;;;11.70;6.00;;;;;;;11.33;100.00;102138.59;4964023;28;20094;-72
2022/08/29 04:57:17;;;;;;;9.38;5.30;;;;;;;11.49;100.00;102141.41;4961919;28;20047;-72
2022/08/29 04:59:42;;;;;;;11.23;5.35;;;;;;;11.40;100.00;102140.94;4963717;28;20043;-72
2022/08/29 05:02:08;;;;;;;7.15;5.03;;;;;;;11.54;100.00;102150.09;4963581;28;20102;-73
2022/08/29 05:04:33;;;;;;;8.60;5.18;;;;;;;11.56;100.00;102146.44;4963732;28;20059;-73
2022/08/29 05:06:59;;;;;;;13.02;6.00;;;;;;;11.58;100.00;102144.53;4963163;28;20045;-71
2022/08/29 05:09:24;;;;;;;11.90;5.38;;;;;;;11.48;100.00;102142.38;4963313;28;20047;-71
2022/08/29 05:11:50;;;;;;;8.00;5.53;;;;;;;11.37;100.00;102137.53;4963223;28;20054;-72
2022/08/29 05:14:16;;;;;;;15.13;5.60;;;;;;;11.50;100.00;102138.69;4962829;28;20050;-72
2022/08/29 05:16:41;;;;;;;8.52;5.47;;;;;;;11.60;100.00;102156.03;4961418;28;20047;-72
2022/08/29 05:19:07;;;;;;;10.55;5.65;;;;;;;11.81;100.00;102158.63;4963618;28;20043;-72
2022/08/29 05:21:38;;;;;;;14.02;5.63;;;;;;;11.88;100.00;102152.94;4963832;28;20047;-73
2022/08/29 05:24:09;;;;;;;7.07;5.18;;;;;;;11.98;100.00;102155.19;4963913;28;20042;-73
2022/08/29 05:26:37;;;;;;;7.47;5.32;;;;;;;12.08;100.00;102154.66;4963924;28;20864;-73
2022/08/29 05:29:07;;;;;;;8.93;5.38;;;;;;;12.11;100.00;102150.97;4964038;28;20103;-73
2022/08/29 05:31:35;;;;;;;10.65;5.28;;;;;;;12.01;100.00;102153.22;4964008;28;20038;-72
2022/08/29 05:34:00;;;;;;;10.35;5.43;;;;;;;12.00;100.00;102158.63;4962902;28;20855;-72
2022/08/29 05:36:26;;;;;;;9.60;4.85;;;;;;;11.82;100.00;102160.41;4963655;28;20042;-73
2022/08/29 05:38:51;;;;;;;13.55;6.35;;;;;;;11.76;100.00;102155.31;4963867;28;20042;-71
2022/08/29 05:41:17;;;;;;;11.38;6.07;;;;;;;11.83;100.00;102148.75;4963561;28;20049;-73
2022/08/29 05:43:43;;;;;;;10.07;5.32;;;;;;;12.02;100.00;102154.09;4963912;28;20039;-72
2022/08/29 05:46:10;;;;;;;6.88;5.13;;;;;;;12.23;100.00;102149.50;4963825;28;20097;-72
2022/08/29 05:48:39;;;;;;;8.93;5.03;;;;;;;12.30;100.00;102145.56;4963601;28;20113;-72
2022/08/29 05:51:04;;;;;;;9.82;5.60;;;;;;;12.49;100.00;102157.09;4963342;28;20050;-72
2022/08/29 05:53:30;;;;;;;9.10;5.40;;;;;;;12.50;100.00;102156.16;4963404;28;20185;-72
2022/08/29 05:55:55;;;;;;;10.32;5.72;;;;;;;12.63;100.00;102143.03;4963573;28;20039;-72
2022/08/29 05:58:21;;;;;;;12.70;6.18;;;;;;;12.86;100.00;102145.38;4963133;28;20506;-71
2022/08/29 06:00:47;;;;;;;13.60;5.35;;;;;;;12.97;100.00;102144.81;4963007;28;20081;-73
2022/08/29 06:03:13;;;;;;;9.52;5.00;;;;;;;13.17;100.00;102149.13;4963020;28;20047;-72
2022/08/29 06:05:39;;;;;;;12.55;5.55;;;;;;;13.29;100.00;102155.66;4962682;28;20049;-73
2022/08/29 06:08:05;;;;;;;12.02;6.25;;;;;;;13.56;100.00;102151.50;4963857;28;20051;-73
2022/08/29 06:10:31;;;;;;;9.98;6.32;;;;;;;13.48;100.00;102159.94;4963004;28;20052;-70
2022/08/29 06:12:57;;;;;;;16.45;6.03;;;;;;;13.63;100.00;102163.59;4961848;28;20051;-71
2022/08/29 06:15:24;;;;;;;15.40;5.50;;;;;;;13.62;100.00;102164.56;4961305;28;20118;-73
2022/08/29 06:17:49;;;;;;;17.33;5.85;;;;;;;13.52;100.00;102163.34;4961275;28;20023;-73
2022/08/29 06:20:15;;;;;;;15.88;5.53;;;;;;;13.47;100.00;102166.25;4963166;28;20049;-73
2022/08/29 06:22:41;;;;;;;12.07;5.60;;;;;;;13.77;100.00;102165.53;4962930;28;20118;-73
2022/08/29 06:25:07;;;;;;;20.23;6.43;;;;;;;14.14;100.00;102169.66;4961537;28;20055;-73
2022/08/29 06:27:33;;;;;;;11.82;5.93;;;;;;;14.14;100.00;102179.53;4963195;28;20059;-73
2022/08/29 06:29:58;;;;;;;10.73;5.40;;;;;;;14.39;100.00;102171.81;4962027;28;20043;-72
2022/08/29 06:32:24;;;;;;;14.02;5.90;;;;;;;14.72;100.00;102174.38;4963520;28;20042;-72
2022/08/29 06:34:49;;;;;;;18.85;5.30;;;;;;;14.60;100.00;102176.91;4963465;28;20023;-73
2022/08/29 06:37:15;;;;;;;11.98;5.55;;;;;;;14.80;100.00;102183.78;4961764;28;20801;-73
2022/08/29 06:39:40;;;;;;;11.82;5.40;;;;;;;15.06;100.00;102177.72;4962711;28;20074;-71
2022/08/29 06:42:06;;;;;;;11.63;5.28;;;;;;;15.01;100.00;102172.63;4963223;28;20046;-72
2022/08/29 06:44:32;;;;;;;11.82;5.63;;;;;;;15.21;100.00;102181.28;4962866;28;20057;-73
2022/08/29 06:46:58;;;;;;;9.50;6.10;;;;;;;15.70;100.00;102179.09;4964006;28;20764;-72
2022/08/29 06:49:24;;;;;;;10.07;5.38;;;;;;;16.00;100.00;102178.97;4944601;28;20030;-72
2022/08/29 06:51:53;;;;;;;8.30;5.47;;;;;;;16.24;98.80;102175.63;4962187;28;20042;-72
2022/08/29 06:54:21;;;;;;;16.98;6.18;;;;;;;16.05;94.99;102171.44;4962303;28;20046;-72
2022/08/29 06:56:48;;;;;;;11.45;5.40;;;;;;;16.46;91.61;102167.84;4960572;28;20042;-72
2022/08/29 06:59:14;;;;;;;12.43;5.78;;;;;;;16.21;91.99;102160.53;4965865;28;20035;-73
2022/08/29 07:01:41;;;;;;;9.98;4.78;;;;;;;16.61;90.21;102175.88;4966029;28;20458;-73
2022/08/29 07:04:07;;;;;;;16.98;5.97;;;;;;;16.72;94.56;102181.44;4965183;28;20057;-73
2022/08/29 07:06:33;;;;;;;8.88;4.88;;;;;;;16.61;87.49;102181.25;4965073;28;20415;-72
2022/08/29 07:08:58;;;;;;;17.05;5.32;;;;;;;17.22;88.59;102180.66;4965363;28;20118;-72
2022/08/29 07:11:26;;;;;;;13.43;6.07;;;;;;;17.40;83.57;102174.91;4965136;28;20051;-72
2022/08/29 07:13:57;;;;;;;8.02;4.63;;;;;;;17.67;85.35;102181.06;4963905;28;20467;-72
2022/08/29 07:16:22;;;;;;;11.25;5.07;;;;;;;17.57;82.94;102179.97;4965626;28;20047;-72
2022/08/29 07:18:48;;;;;;;14.52;6.10;;;;;;;17.19;86.48;102180.00;4964451;28;20177;-72
2022/08/29 07:21:16;;;;;;;15.75;5.82;;;;;;;17.41;85.59;102176.66;4964672;28;20037;-72
2022/08/29 07:23:41;;;;;;;10.02;5.07;;;;;;;17.58;88.42;102184.41;4965390;28;20125;-73
2022/08/29 07:26:09;;;;;;;16.17;5.70;;;;;;;17.11;88.16;102182.34;4964837;28;20165;-73
2022/08/29 07:28:35;;;;;;;10.70;5.50;;;;;;;17.60;87.12;102183.31;4965441;28;20473;-73
2022/08/29 07:31:01;;;;;;;12.50;5.32;;;;;;;17.24;89.42;102191.31;4963517;28;20046;-72
2022/08/29 07:33:26;;;;;;;15.77;5.85;;;;;;;17.54;90.58;102185.59;4964274;28;20049;-72
2022/08/29 07:35:53;;;;;;;13.75;5.97;;;;;;;17.54;86.17;102183.75;4965646;28;20053;-72
2022/08/29 07:38:19;;;;;;;10.80;5.68;;;;;;;17.03;91.44;102185.59;4965484;28;20043;-73
2022/08/29 07:40:45;;;;;;;16.02;5.72;;;;;;;17.68;90.54;102181.91;4947758;28;20049;-72
2022/08/29 07:43:10;;;;;;;10.98;5.13;;;;;;;18.35;84.37;102179.69;4965034;28;20042;-71
2022/08/29 07:45:40;;;;;;;15.05;4.85;;;;;;;18.40;82.45;102187.44;4963643;28;20058;-73
2022/08/29 07:48:05;;;;;;;13.15;5.70;;;;;;;18.46;85.55;102187.84;4964199;28;20039;-73
2022/08/29 07:50:31;;;;;;;15.13;5.25;;;;;;;18.90;83.42;102186.34;4965159;28;20043;-73
2022/08/29 07:52:57;;;;;;;10.25;4.70;;;;;;;19.14;77.08;102187.13;4965272;28;20043;-73
2022/08/29 07:55:23;;;;;;;10.75;4.22;;;;;;;19.52;77.75;102182.38;4963913;28;20042;-72
2022/08/29 07:57:51;;;;;;;13.35;4.30;;;;;;;18.95;78.53;102183.28;4964568;28;20570;-72
2022/08/29 08:00:19;;;;;;;11.77;4.65;;;;;;;19.41;77.23;102184.09;4962497;28;20046;-74
2022/08/29 08:02:44;;;;;;;7.78;3.95;;;;;;;19.76;71.90;102185.84;4962804;28;20035;-72
2022/08/29 08:05:10;;;;;;;12.25;4.53;;;;;;;20.06;71.63;102184.34;4963665;28;20058;-72
2022/08/29 08:07:35;;;;;;;13.63;4.40;;;;;;;20.68;71.86;102189.97;4962411;28;20809;-73
2022/08/29 08:10:02;;;;;;;10.50;3.60;;;;;;;20.17;75.21;102179.75;4944436;28;20042;-72
2022/08/29 08:12:28;;;;;;;6.43;2.90;;;;;;;20.93;73.96;102172.47;4963399;28;20071;-73
2022/08/29 08:14:54;;;;;;;8.25;3.28;;;;;;;20.39;71.29;102172.56;4961741;28;20130;-73
2022/08/29 08:17:20;;;;;;;8.65;3.78;;;;;;;20.33;73.44;102175.75;4962701;28;20574;-71
2022/08/29 08:19:45;;;;;;;14.52;3.92;;;;;;;20.56;70.84;102184.72;4963153;28;20047;-72
2022/08/29 08:22:10;;;;;;;10.77;3.38;;;;;;;19.59;75.19;102183.63;4963018;28;20038;-73
2022/08/29 08:24:36;;;;;;;17.02;3.50;;;;;;;20.15;74.91;102176.31;4963160;28;20081;-72
2022/08/29 08:27:02;;;;;;;7.93;3.65;;;;;;;20.67;73.35;102181.94;4963206;28;20077;-73
2022/08/29 08:29:27;;;;;;;7.63;2.60;;;;;;;20.20;72.61;102185.91;4961814;28;20494;-72
2022/08/29 08:31:54;;;;;;;6.45;3.05;;;;;;;20.15;75.06;102187.16;4963727;28;20439;-74
2022/08/29 08:34:20;;;;;;;7.57;2.60;;;;;;;20.00;74.74;102184.84;4962939;28;20093;-71
2022/08/29 08:36:46;;;;;;;9.25;3.17;;;;;;;20.30;74.05;102178.75;4963202;28;20046;-74
2022/08/29 08:39:13;;;;;;;7.05;2.78;;;;;;;20.17;74.66;102171.63;4962156;28;20121;-74
2022/08/29 08:41:48;;;;;;;8.25;3.33;;;;;;;20.43;77.62;102176.72;4963525;28;20056;-73
2022/08/29 08:44:20;;;;;;;7.22;2.53;;;;;;;20.44;75.52;102184.72;4946080;28;20085;-73
2022/08/29 08:46:49;;;;;;;9.85;2.70;;;;;;;20.27;80.39;102189.81;4953959;28;20043;-72
2022/08/29 08:49:48;;;;;;;10.38;2.40;;;;;;;20.40;78.02;102179.69;4962339;28;20066;-73
2022/08/29 08:52:40;;;;;;;10.63;2.30;;;;;;;20.15;78.97;102175.47;4962231;28;20039;-74
2022/08/29 08:55:47;;;;;;;10.82;3.65;;;;;;;19.92;79.44;102183.59;4961893;28;20051;-72
2022/08/29 08:58:34;;;;;;;8.00;3.10;;;;;;;20.04;77.70;102187.19;4960574;28;20037;-73
2022/08/29 09:01:07;;;;;;;10.02;3.63;;;;;;;20.06;76.51;102177.06;4963365;28;20495;-73
2022/08/29 09:04:07;;;;;;;10.18;3.13;;;;;;;20.28;75.56;102170.75;4960012;28;20832;-74
2022/08/29 09:06:52;;;;;;;9.32;3.72;;;;;;;20.67;77.05;102168.41;4953768;28;20078;-73
2022/08/29 09:09:43;;;;;;;6.20;2.80;;;;;;;20.08;78.88;102174.22;4966685;28;20030;-74
2022/08/29 09:12:11;;;;;;;10.48;2.75;;;;;;;20.17;77.98;102176.19;4957236;28;20101;-72
2022/08/29 09:14:53;;;;;;;7.38;3.15;;;;;;;20.32;77.84;102174.91;4961955;28;20039;-73
2022/08/29 09:17:26;;;;;;;9.63;2.50;;;;;;;20.06;76.08;102177.06;4960671;28;20053;-73
2022/08/29 09:19:55;;;;;;;9.77;3.30;;;;;;;19.69;78.52;102178.38;4949500;28;20052;-72
2022/08/29 09:22:28;;;;;;;6.93;2.50;;;;;;;20.09;77.94;102174.13;4957402;28;20574;-72
2022/08/29 09:24:58;;;;;;;7.25;3.17;;;;;;;20.49;75.18;102183.53;4959779;28;20035;-72
2022/08/29 09:27:27;;;;;;;8.55;3.15;;;;;;;21.17;72.50;102174.03;4959248;28;20125;-73
2022/08/29 09:30:03;;;;;;;6.88;2.92;;;;;;;20.90;75.29;102177.28;4960657;28;20427;-74
2022/08/29 09:32:29;;;;;;;14.45;3.42;;;;;;;21.29;73.95;102172.13;4971288;28;20050;-74
2022/08/29 09:34:54;;;;;;;12.48;3.50;;;;;;;20.32;76.76;102177.63;4962736;28;20183;-74
2022/08/29 09:37:20;;;;;;;8.57;2.90;;;;;;;19.99;76.81;102175.00;4960972;28;20889;-73
2022/08/29 09:39:57;;;;;;;6.07;2.75;;;;;;;20.06;76.67;102166.25;4962639;28;20047;-74
2022/08/29 09:42:30;;;;;;;9.57;2.72;;;;;;;19.75;77.28;102181.44;4958628;28;20097;-73
2022/08/29 09:45:00;;;;;;;5.13;2.90;;;;;;;20.26;76.82;102174.56;4961021;28;20088;-73
2022/08/29 09:47:28;;;;;;;6.68;2.80;;;;;;;20.52;79.29;102180.53;4964633;28;20197;-73
2022/08/29 09:50:11;;;;;;;8.05;2.75;;;;;;;20.92;73.05;102183.44;4961623;28;20046;-74
2022/08/29 09:52:49;;;;;;;5.60;2.10;;;;;;;20.97;74.96;102181.19;4959497;28;20408;-71
2022/08/29 09:55:43;;;;;;;5.32;2.15;;;;;;;20.83;74.75;102176.94;4960880;28;20114;-72
2022/08/29 09:58:14;;;;;;;8.88;2.85;;;;;;;21.10;73.44;102179.13;4965940;28;20038;-73
2022/08/29 10:00:43;;;;;;;9.95;2.63;;;;;;;21.29;72.96;102175.69;4965759;28;20042;-71
2022/08/29 10:03:20;;;;;;;8.65;2.65;;;;;;;21.37;74.22;102175.88;4961000;28;20049;-72
2022/08/29 10:05:46;;;;;;;6.80;2.40;;;;;;;20.98;73.41;102173.91;4973609;28;20051;-71
2022/08/29 10:08:34;;;;;;;8.45;2.30;;;;;;;20.57;74.85;102176.44;4970030;28;20442;-72
2022/08/29 10:11:48;;;;;;;6.75;2.92;;;;;;;20.93;75.69;102163.44;4965361;28;20042;-72
2022/08/29 10:14:29;;;;;;;6.05;2.78;;;;;;;21.16;74.38;102170.47;4945660;28;20137;-74
2022/08/29 10:19:54;;;;;;;5.68;2.55;;;;;;;21.76;69.14;102165.22;4964092;28;20042;-75
2022/08/29 10:22:46;;;;;;;8.18;2.95;;;;;;;22.10;68.26;102163.00;4969998;28;20514;-73
2022/08/29 10:25:33;;;;;;;5.20;2.95;;;;;;;23.24;62.64;102158.69;4961182;28;20058;-73
2022/08/29 10:28:06;;;;;;;11.32;2.75;;;;;;;23.10;65.23;102165.50;4947802;28;20043;-73
2022/08/29 10:30:52;;;;;;;12.93;3.17;;;;;;;22.16;63.64;102159.75;4961245;28;20043;-72
2022/08/29 10:33:46;;;;;;;5.47;2.50;;;;;;;22.71;61.61;102165.50;4965536;28;20053;-73
2022/08/29 10:36:37;;;;;;;25.92;3.33;;;;;;;22.88;60.46;102152.16;4960747;28;20088;-73
2022/08/29 10:39:16;;;;;;;4.07;2.80;;;;;;;22.36;64.75;102170.66;4958395;28;20121;-73
2022/08/29 10:42:02;;;;;;;9.05;2.15;;;;;;;22.66;61.05;102159.66;4949007;28;20031;-72
2022/08/29 10:44:41;;;;;;;7.55;3.00;;;;;;;22.81;62.66;102156.50;4961678;28;20043;-74
2022/08/29 10:47:19;;;;;;;5.43;3.03;;;;;;;22.05;63.40;102159.00;4961162;28;20068;-72
2022/08/29 10:50:33;;;;;;;6.78;3.03;;;;;;;22.45;66.02;102148.94;4961089;28;20050;-74
2022/08/29 10:53:19;;;;;;;5.95;2.78;;;;;;;22.26;62.58;102151.63;4959470;28;20157;-74
2022/08/29 10:56:26;;;;;;;10.05;3.28;;;;;;;22.56;62.49;102157.94;4949099;28;20117;-74
2022/08/29 10:59:17;;;;;;;4.80;3.22;;;;;;;21.50;65.78;102162.09;4959778;28;20061;-73
2022/08/29 11:02:02;;;;;;;7.95;3.25;;;;;;;21.36;65.80;102157.03;4956855;28;20105;-73
2022/08/29 11:04:37;;;;;;;6.70;3.10;;;;;;;21.89;64.10;102149.53;4957156;28;20045;-73
2022/08/29 11:07:24;;;;;;;8.82;2.95;;;;;;;22.58;62.54;102145.91;4963008;28;20101;-74
2022/08/29 11:10:02;;;;;;;5.05;3.03;;;;;;;22.85;62.53;102155.19;4958302;28;20043;-73
2022/08/29 11:12:33;;;;;;;4.15;2.50;;;;;;;22.25;61.56;102149.91;4960188;28;20121;-73
2022/08/29 11:15:03;;;;;;;14.27;3.25;;;;;;;22.72;64.12;102150.91;4959287;28;20078;-73
2022/08/29 11:17:36;;;;;;;11.70;3.33;;;;;;;23.36;61.51;102152.09;4963042;28;20043;-74
2022/08/29 11:20:10;;;;;;;6.70;2.88;;;;;;;23.85;60.61;102147.31;4960053;28;20070;-72
2022/08/29 11:22:48;;;;;;;6.13;2.70;;;;;;;23.95;58.61;102147.25;4962966;28;20090;-72
2022/08/29 11:25:17;;;;;;;5.88;3.38;;;;;;;22.86;63.04;102140.59;4959951;28;20046;-74
2022/08/29 11:27:43;;;;;;;7.90;3.15;;;;;;;22.72;63.14;102144.59;4951691;28;20496;-72
2022/08/29 11:30:16;;;;;;;6.88;3.33;;;;;;;22.34;63.71;102140.03;4958868;28;20117;-72
2022/08/29 11:33:15;;;;;;;7.10;3.45;;;;;;;22.28;66.28;102135.16;4966732;28;20043;-72
2022/08/29 11:36:03;;;;;;;12.10;3.83;;;;;;;22.54;62.63;102132.72;4951896;28;20047;-72
2022/08/29 11:38:50;;;;;;;6.35;2.70;;;;;;;22.77;62.32;102120.56;4960236;28;20344;-72